»·PEaware :: N433YE KBUR-KSNA

N433YE :: KBUR-KSNA

FLIGHT INFORMATION

Flight Status: Arrived
Operator: Privately registered:
United States
More flights under this callsign
Pilot: Jeremy H. (10741)
Aircraft: Diamond DA-62
(DA62)
More flights by this aircraft type
Origin: KBUR Bob Hope-Burbank
United States
Destination: KSNA John Wayne-Orange Co
United States
More flights between these airports :: More routes between these airports
Route: +ELMOO8 ELMOO V186 BAYJY V363 POXKU V8 SLI
File this flight plan on PilotEdge
Remarks:
Altitude:
(Current/Filed)
9,000ft
Speed:
(Current/Filed)
165kts
Departed: 04-Aug-18 11:27 AM
Arrived: 04-Aug-18 11:50 AM
Distance/Time
Traveled:
40nm/0:23
Distance/Time
To Go:
Arrived

Flight Plot

Page will automatically refresh every two minutes.


Map Options




Map Legend


Flown Route
Filed Route
Departure Airport
Arrival Airport
Navaid (VOR, NDB)
Fix

Horizontal Profiles

Position Reports

Time Latitude Longitude Heading Altitude Ground
Speed
04-Aug-18 10:55 34.196337 -118.367565 358 721ft 0kts
04-Aug-18 10:56 34.196337 -118.367565 358 721ft 0kts
04-Aug-18 10:57 34.196337 -118.367565 358 721ft 0kts
04-Aug-18 10:58 34.196338 -118.367565 358 721ft 0kts
04-Aug-18 10:59 34.196338 -118.367565 358 721ft 0kts
04-Aug-18 11:00 34.196338 -118.367565 358 721ft 0kts
04-Aug-18 11:01 34.196338 -118.367565 358 721ft 0kts
04-Aug-18 11:02 34.196338 -118.367565 358 721ft 0kts
04-Aug-18 11:03 34.196338 -118.367565 358 721ft 0kts
04-Aug-18 11:04 34.196338 -118.367565 358 721ft 0kts
04-Aug-18 11:05 34.196338 -118.367565 358 721ft 0kts
04-Aug-18 11:06 34.196338 -118.367565 358 721ft 0kts
04-Aug-18 11:07 34.196338 -118.367565 358 721ft 0kts
04-Aug-18 11:08 34.196338 -118.367565 358 721ft 0kts
04-Aug-18 11:09 34.196338 -118.367565 358 721ft 0kts
04-Aug-18 11:10 34.196338 -118.367565 358 721ft 0kts
04-Aug-18 11:11 34.196338 -118.367565 358 721ft 0kts
04-Aug-18 11:12 34.196338 -118.367565 358 721ft 0kts
04-Aug-18 11:13 34.196338 -118.367565 358 721ft 0kts
04-Aug-18 11:14 34.196338 -118.367565 358 721ft 0kts
04-Aug-18 11:15 34.196338 -118.367565 358 721ft 0kts
04-Aug-18 11:16 34.196338 -118.367565 358 721ft 0kts
04-Aug-18 11:17 34.196338 -118.367565 358 721ft 0kts
04-Aug-18 11:18 34.196338 -118.367565 358 721ft 0kts
04-Aug-18 11:19 34.196338 -118.367565 358 721ft 0kts
04-Aug-18 11:20 34.196338 -118.367565 358 721ft 0kts
04-Aug-18 11:21 34.196338 -118.367565 358 721ft 0kts
04-Aug-18 11:22 34.196338 -118.367565 358 721ft 0kts
04-Aug-18 11:23 34.196943 -118.368773 285 723ft 8kts
04-Aug-18 11:24 34.197075 -118.369016 316 724ft 0kts
04-Aug-18 11:25 34.197075 -118.369016 316 724ft 0kts
04-Aug-18 11:26 34.197075 -118.369016 316 724ft 0kts
04-Aug-18 11:27 34.197136 -118.369074 326 724ft 6kts
04-Aug-18 11:28 34.197025 -118.355443 117 939ft 90kts
04-Aug-18 11:29 34.180791 -118.333441 132 2033ft 88kts
04-Aug-18 11:30 34.167337 -118.308615 115 3094ft 90kts
04-Aug-18 11:31 34.158211 -118.280216 112 4142ft 92kts
04-Aug-18 11:32 34.149216 -118.250385 111 4993ft 110kts
04-Aug-18 11:33 34.137128 -118.210135 112 4991ft 134kts
04-Aug-18 11:34 34.124466 -118.167832 112 4990ft 134kts
04-Aug-18 11:35 34.110843 -118.122227 111 4989ft 161kts
04-Aug-18 11:36 34.094564 -118.068043 112 4991ft 176kts
04-Aug-18 11:37 34.077391 -118.012214 112 5025ft 178kts
04-Aug-18 11:38 34.060034 -117.955805 111 5040ft 181kts
04-Aug-18 11:39 34.042363 -117.898468 111 5043ft 183kts
04-Aug-18 11:40 34.024483 -117.840579 111 5044ft 184kts
04-Aug-18 11:41 34.002722 -117.785663 153 4926ft 184kts
04-Aug-18 11:42 33.954821 -117.784254 180 4062ft 167kts
04-Aug-18 11:43 33.906698 -117.783461 180 4013ft 174kts
04-Aug-18 11:44 33.858039 -117.782485 180 3998ft 175kts
04-Aug-18 11:45 33.814650 -117.787343 210 3044ft 134kts
04-Aug-18 11:46 33.787478 -117.806101 209 2882ft 99kts
04-Aug-18 11:47 33.762359 -117.817872 201 1719ft 105kts
04-Aug-18 11:48 33.733276 -117.832073 211 1172ft 125kts
04-Aug-18 11:49 33.703206 -117.851367 208 597ft 104kts
04-Aug-18 11:50 33.679435 -117.866453 208 63ft 88kts
04-Aug-18 11:51 33.672290 -117.871871 294 60ft 0kts
04-Aug-18 11:52 33.672296 -117.871887 293 60ft 1kts
04-Aug-18 11:53 33.675596 -117.870400 28 60ft 17kts
04-Aug-18 11:54 33.676197 -117.871044 214 60ft 0kts
04-Aug-18 11:55 33.676197 -117.871044 214 60ft 0kts

Navigation Log

Ident Type
Flight plan parsing failed, navigation log unavailable